Time;durP1;ratioP1;P1;durP2;ratioP2;P2;SDS_P1;SDS_P2;PMS_P1;PMS_P2;Temp;Humidity;BMP_temperature;BMP_pressure;BME280_temperature;BME280_humidity;BME280_pressure;Samples;Min_cycle;Max_cycle;Signal;HPM_P1;HPM_P2
2022/10/16 00:00:05;;;;;;;2.17;1.00;;;15.30;80.30;;;;;;4957885;28;20267;-89
2022/10/16 00:03:13;;;;;;;1.20;0.90;;;15.20;81.30;;;;;;4976522;28;20188;-88
2022/10/16 00:05:44;;;;;;;3.70;1.00;;;15.20;81.30;;;;;;4969891;28;20208;-85
2022/10/16 00:08:13;;;;;;;2.30;0.97;;;15.40;76.50;;;;;;4971843;29;20203;-85
2022/10/16 00:10:56;;;;;;;1.17;1.00;;;15.30;76.90;;;;;;4969702;28;20180;-91
2022/10/16 00:13:21;;;;;;;2.50;1.00;;;15.30;77.90;;;;;;4971297;28;20204;-92
2022/10/16 00:16:03;;;;;;;1.93;1.00;;;15.30;75.30;;;;;;4972364;28;20595;-85
2022/10/16 00:18:30;;;;;;;1.30;0.90;;;15.20;78.60;;;;;;4967735;28;20164;-87
2022/10/16 00:21:08;;;;;;;2.70;1.23;;;15.10;81.50;;;;;;4965175;28;20177;-90
2022/10/16 00:23:36;;;;;;;2.00;1.10;;;15.10;82.80;;;;;;4956920;28;20195;-87
2022/10/16 00:27:01;;;;;;;3.13;1.10;;;15.10;82.10;;;;;;4978937;28;20199;-89
2022/10/16 00:29:27;;;;;;;1.53;1.13;;;15.10;81.90;;;;;;4978908;28;20168;-89
2022/10/16 00:31:54;;;;;;;3.83;1.10;;;15.10;83.30;;;;;;4978434;28;20168;-88
2022/10/16 00:34:23;;;;;;;2.13;1.00;;;15.20;82.10;;;;;;4969580;29;20223;-84
2022/10/16 00:37:11;;;;;;;4.50;1.23;;;15.10;82.30;;;;;;4972384;28;20531;-89
2022/10/16 00:39:55;;;;;;;2.20;1.10;;;15.20;81.20;;;;;;4959901;29;20223;-92
2022/10/16 00:42:24;;;;;;;2.17;1.20;;;15.20;80.30;;;;;;4960995;29;20175;-91
2022/10/16 00:44:57;;;;;;;1.77;0.90;;;15.20;80.90;;;;;;4963945;28;20235;-92
2022/10/16 00:47:34;;;;;;;1.30;1.10;;;15.20;81.10;;;;;;4965082;28;20188;-91
2022/10/16 00:50:10;;;;;;;1.97;1.20;;;15.00;83.40;;;;;;4965719;28;20189;-91
2022/10/16 00:52:39;;;;;;;3.17;0.87;;;14.90;86.60;;;;;;4964163;28;20172;-92
2022/10/16 00:55:06;;;;;;;3.50;1.20;;;14.90;89.80;;;;;;4963505;28;20696;-84
2022/10/16 00:57:32;;;;;;;2.07;1.30;;;14.90;90.50;;;;;;4961060;29;20610;-86
2022/10/16 00:59:59;;;;;;;2.43;1.10;;;14.90;90.90;;;;;;4945295;29;20637;-84
2022/10/16 01:02:25;;;;;;;3.20;1.20;;;14.80;91.20;;;;;;4967140;29;20231;-84
2022/10/16 01:04:54;;;;;;;3.27;1.47;;;15.00;91.20;;;;;;4968564;29;20203;-91
2022/10/16 01:07:39;;;;;;;4.33;1.30;;;14.90;91.00;;;;;;4973939;28;20276;-92
2022/10/16 01:10:21;;;;;;;2.83;1.20;;;14.90;91.30;;;;;;4963366;29;20176;-92
2022/10/16 01:12:57;;;;;;;3.53;1.23;;;14.90;91.70;;;;;;4962674;28;20219;-91
2022/10/16 01:15:30;;;;;;;2.60;1.20;;;14.90;91.60;;;;;;4962760;28;20179;-91
2022/10/16 01:17:59;;;;;;;3.17;1.47;;;14.90;91.50;;;;;;4962401;29;20188;-86
2022/10/16 01:20:30;;;;;;;4.27;1.40;;;14.90;91.50;;;;;;4969461;29;20200;-83
2022/10/16 01:23:14;;;;;;;3.30;1.10;;;15.00;90.90;;;;;;4971154;29;20180;-91
2022/10/16 01:25:48;;;;;;;4.63;1.70;;;15.00;90.80;;;;;;4963459;29;20238;-90
2022/10/16 01:28:16;;;;;;;3.60;1.30;;;15.00;90.40;;;;;;4977408;29;20175;-88
2022/10/16 01:30:44;;;;;;;4.03;1.33;;;14.90;91.20;;;;;;4966936;28;20176;-91
2022/10/16 01:33:23;;;;;;;1.60;1.10;;;15.00;90.40;;;;;;4980886;28;20176;-85
2022/10/16 01:35:55;;;;;;;4.40;1.40;;;14.90;91.30;;;;;;4982927;28;20201;-91
2022/10/16 01:38:34;;;;;;;3.90;1.50;;;15.00;91.70;;;;;;4983263;28;20218;-91
2022/10/16 01:41:31;;;;;;;2.10;1.30;;;14.90;91.40;;;;;;4984212;28;20185;-90
2022/10/16 01:44:08;;;;;;;3.70;1.50;;;14.90;92.10;;;;;;4986315;28;20187;-93
2022/10/16 01:46:36;;;;;;;3.77;1.40;;;14.90;92.60;;;;;;4981571;28;20199;-89
2022/10/16 01:49:03;;;;;;;3.17;1.20;;;15.00;92.00;;;;;;4986349;28;20172;-91
2022/10/16 01:51:30;;;;;;;2.00;1.20;;;15.00;91.50;;;;;;4984297;28;20207;-84
2022/10/16 01:53:58;;;;;;;4.13;1.50;;;14.90;91.20;;;;;;4983035;28;20180;-83
2022/10/16 01:56:27;;;;;;;1.80;1.20;;;15.00;92.20;;;;;;4979097;28;20180;-89
2022/10/16 01:59:06;;;;;;;1.90;1.30;;;14.90;92.60;;;;;;4978233;28;20179;-85
2022/10/16 02:01:36;;;;;;;2.70;1.27;;;14.90;91.80;;;;;;4976450;28;20289;-84
2022/10/16 02:04:08;;;;;;;2.33;1.40;;;14.90;93.00;;;;;;4976178;28;20260;-86
2022/10/16 02:06:35;;;;;;;4.87;1.47;;;14.90;92.60;;;;;;4976788;28;20323;-83
2022/10/16 02:09:03;;;;;;;4.93;1.53;;;14.80;93.20;;;;;;4976308;28;20180;-84
2022/10/16 02:11:29;;;;;;;6.33;1.50;;;14.80;93.80;;;;;;4976053;28;20741;-86
2022/10/16 02:14:03;;;;;;;3.13;1.23;;;14.70;94.40;;;;;;4976066;28;20191;-85
2022/10/16 02:16:54;;;;;;;3.47;1.33;;;14.70;95.10;;;;;;4975600;28;20220;-84
2022/10/16 02:19:22;;;;;;;2.87;1.83;;;14.70;95.20;;;;;;4976463;28;20187;-83
2022/10/16 02:21:56;;;;;;;2.83;1.33;;;14.70;96.00;;;;;;4976335;28;20662;-84
2022/10/16 02:24:53;;;;;;;5.20;1.50;;;14.70;95.70;;;;;;4975852;28;20466;-84
2022/10/16 02:27:37;;;;;;;4.37;1.40;;;14.60;96.10;;;;;;4975648;28;20705;-85
2022/10/16 02:30:25;;;;;;;1.70;1.30;;;14.70;95.50;;;;;;4975477;28;20179;-84
2022/10/16 02:32:53;;;;;;;4.07;1.37;;;14.60;96.60;;;;;;4977352;28;20175;-92
2022/10/16 02:35:21;;;;;;;1.77;1.23;;;14.60;97.50;;;;;;4979345;28;20178;-86
2022/10/16 02:37:48;;;;;;;4.40;1.50;;;14.60;97.40;;;;;;4979923;28;20199;-84
2022/10/16 02:40:15;;;;;;;4.53;1.50;;;14.70;97.20;;;;;;4982851;28;20180;-84
2022/10/16 02:42:41;;;;;;;2.87;1.33;;;14.70;97.20;;;;;;4988166;28;20199;-86
2022/10/16 02:45:20;;;;;;;2.70;1.53;;;14.70;97.00;;;;;;4987673;28;20259;-87
2022/10/16 02:47:47;;;;;;;4.00;1.73;;;14.70;97.10;;;;;;4985987;28;20536;-83
2022/10/16 02:50:12;;;;;;;2.63;1.57;;;14.60;97.70;;;;;;4992964;28;20168;-90
2022/10/16 02:52:41;;;;;;;2.30;1.40;;;14.80;97.70;;;;;;4999483;28;20191;-86
2022/10/16 02:55:07;;;;;;;2.70;1.37;;;14.70;97.90;;;;;;4991947;28;20183;-85
2022/10/16 02:57:36;;;;;;;3.87;1.67;;;14.70;97.40;;;;;;4987935;28;20195;-86
2022/10/16 03:00:06;;;;;;;3.80;1.50;;;14.60;98.10;;;;;;4991244;28;20240;-90
2022/10/16 03:02:32;;;;;;;3.60;1.40;;;14.70;98.40;;;;;;4986282;28;20198;-91
2022/10/16 03:04:58;;;;;;;2.60;1.83;;;14.70;98.40;;;;;;4980733;28;20211;-91
2022/10/16 03:07:24;;;;;;;4.13;2.00;;;14.60;99.10;;;;;;4980813;28;20175;-91
2022/10/16 03:09:49;;;;;;;3.30;1.80;;;14.70;98.90;;;;;;4981232;28;20183;-89
2022/10/16 03:12:22;;;;;;;3.73;1.80;;;14.80;99.60;;;;;;4988808;28;20170;-82
2022/10/16 03:14:48;;;;;;;3.13;1.70;;;14.60;99.60;;;;;;4999344;28;20199;-87
2022/10/16 03:17:16;;;;;;;2.87;1.70;;;14.60;99.80;;;;;;4998894;28;20167;-83
2022/10/16 03:19:42;;;;;;;4.30;1.87;;;14.60;99.90;;;;;;4998567;28;20160;-83
2022/10/16 03:22:11;;;;;;;4.30;1.70;;;14.60;99.90;;;;;;4994273;28;20234;-84
2022/10/16 03:25:23;;;;;;;4.30;1.90;;;14.60;99.90;;;;;;4988115;28;20192;-90
2022/10/16 03:27:56;;;;;;;2.90;1.70;;;14.50;99.90;;;;;;4977957;28;20156;-86
2022/10/16 03:30:22;;;;;;;3.80;1.90;;;14.50;99.90;;;;;;4984642;28;20176;-85
2022/10/16 03:32:48;;;;;;;4.77;2.37;;;14.50;99.90;;;;;;4982729;28;20187;-84
2022/10/16 03:35:13;;;;;;;3.60;1.70;;;14.40;99.90;;;;;;4980250;28;20211;-92
2022/10/16 03:37:39;;;;;;;4.17;1.70;;;14.50;99.90;;;;;;4985789;28;20170;-91
2022/10/16 03:40:05;;;;;;;4.23;2.03;;;14.30;99.90;;;;;;4988669;28;20181;-86
2022/10/16 03:42:31;;;;;;;3.90;1.60;;;14.50;99.90;;;;;;5004127;28;20250;-84
2022/10/16 03:44:57;;;;;;;2.60;1.60;;;14.60;99.90;;;;;;5015464;28;20214;-90
2022/10/16 03:47:23;;;;;;;5.00;1.87;;;14.60;99.90;;;;;;5018536;28;20181;-86
2022/10/16 03:49:49;;;;;;;3.30;2.10;;;14.40;99.90;;;;;;5018350;28;20190;-86
2022/10/16 03:52:18;;;;;;;3.50;1.93;;;14.50;99.90;;;;;;5010705;28;20202;-83
2022/10/16 03:54:45;;;;;;;2.63;1.80;;;14.40;99.90;;;;;;4997062;28;20237;-83
2022/10/16 03:57:29;;;;;;;5.77;1.87;;;14.40;99.90;;;;;;4996059;28;20179;-85
2022/10/16 03:59:55;;;;;;;5.07;1.83;;;14.40;99.90;;;;;;4979516;28;20238;-83
2022/10/16 04:02:22;;;;;;;3.83;2.10;;;14.30;99.90;;;;;;5005077;28;20197;-84
2022/10/16 04:04:47;;;;;;;3.20;1.60;;;14.40;99.90;;;;;;5005056;28;20250;-81
2022/10/16 04:07:14;;;;;;;4.70;1.93;;;14.40;99.90;;;;;;5005189;28;20631;-83
2022/10/16 04:09:40;;;;;;;5.93;1.97;;;14.40;99.90;;;;;;5004776;28;20186;-84
2022/10/16 04:12:08;;;;;;;5.20;2.10;;;14.40;99.90;;;;;;5000417;28;20179;-84
2022/10/16 04:14:34;;;;;;;4.03;1.80;;;14.40;99.90;;;;;;4995159;28;20252;-84
2022/10/16 04:17:01;;;;;;;4.60;2.20;;;14.40;99.90;;;;;;4994982;28;20598;-85
2022/10/16 04:19:29;;;;;;;5.67;1.90;;;14.40;99.90;;;;;;4998539;28;20639;-85
2022/10/16 04:21:55;;;;;;;3.80;1.93;;;14.40;99.90;;;;;;5001707;28;20622;-87
2022/10/16 04:24:24;;;;;;;5.00;2.10;;;14.40;99.90;;;;;;4999740;28;20198;-84
2022/10/16 04:26:50;;;;;;;3.60;2.00;;;14.30;99.90;;;;;;4998864;28;20208;-86
2022/10/16 04:29:18;;;;;;;6.07;1.83;;;14.40;99.90;;;;;;4999178;28;20295;-87
2022/10/16 04:31:45;;;;;;;6.23;1.80;;;14.40;99.90;;;;;;4999594;28;20206;-85
2022/10/16 04:34:10;;;;;;;5.60;1.90;;;14.40;99.90;;;;;;5000729;28;20198;-84
2022/10/16 04:36:36;;;;;;;5.60;1.97;;;14.40;99.90;;;;;;5000926;28;20577;-92
2022/10/16 04:39:01;;;;;;;3.87;1.67;;;14.40;99.90;;;;;;4998299;28;20214;-86
2022/10/16 04:41:27;;;;;;;5.47;1.90;;;14.40;99.90;;;;;;5001292;28;20256;-89
2022/10/16 04:43:53;;;;;;;7.97;2.50;;;14.40;99.90;;;;;;5000464;28;20191;-90
2022/10/16 04:46:18;;;;;;;4.67;1.80;;;14.50;99.90;;;;;;4998957;28;20222;-84
2022/10/16 04:48:44;;;;;;;3.90;1.87;;;14.40;99.90;;;;;;4998339;28;20174;-90
2022/10/16 04:51:11;;;;;;;4.27;2.00;;;14.40;99.90;;;;;;4998589;28;20177;-84
2022/10/16 04:53:36;;;;;;;3.77;2.00;;;14.40;99.90;;;;;;4998993;28;20178;-85
2022/10/16 04:56:02;;;;;;;7.17;2.00;;;14.40;99.90;;;;;;4998384;28;20247;-86
2022/10/16 04:58:28;;;;;;;5.63;1.87;;;14.30;99.90;;;;;;4997655;28;20179;-88
2022/10/16 05:00:56;;;;;;;4.20;2.10;;;14.40;99.90;;;;;;4998734;28;20198;-90
2022/10/16 05:03:22;;;;;;;3.00;1.93;;;14.40;99.90;;;;;;5016536;28;20537;-83
2022/10/16 05:05:48;;;;;;;3.80;1.77;;;14.30;99.90;;;;;;5018225;28;20279;-84
2022/10/16 05:08:14;;;;;;;4.30;2.10;;;14.30;99.90;;;;;;5017992;28;20155;-86
2022/10/16 05:10:44;;;;;;;4.60;2.00;;;14.30;99.90;;;;;;5014671;28;20167;-83
2022/10/16 05:13:10;;;;;;;4.97;2.03;;;14.30;99.90;;;;;;5007039;28;20208;-84
2022/10/16 05:15:35;;;;;;;5.33;2.00;;;14.30;99.90;;;;;;5006401;28;20171;-89
2022/10/16 05:18:01;;;;;;;3.70;2.10;;;14.20;99.90;;;;;;5003832;28;20163;-85
2022/10/16 05:20:27;;;;;;;5.80;2.33;;;14.30;99.90;;;;;;5002625;28;20174;-84
2022/10/16 05:22:56;;;;;;;5.87;2.37;;;14.20;99.90;;;;;;4998643;28;20182;-91
2022/10/16 05:25:21;;;;;;;4.40;1.87;;;14.20;99.90;;;;;;5003494;28;20210;-89
2022/10/16 05:27:48;;;;;;;4.70;2.33;;;14.20;99.90;;;;;;4998728;28;20202;-91
2022/10/16 05:30:15;;;;;;;4.33;2.00;;;14.20;99.90;;;;;;4997007;28;20228;-86
2022/10/16 05:32:40;;;;;;;3.97;2.33;;;14.20;99.90;;;;;;4997583;28;20272;-88
2022/10/16 05:35:06;;;;;;;5.40;2.77;;;14.20;99.90;;;;;;4998633;28;20206;-84
2022/10/16 05:37:32;;;;;;;4.87;2.50;;;14.20;99.90;;;;;;4997645;28;20185;-83
2022/10/16 05:39:58;;;;;;;6.37;2.80;;;14.20;99.90;;;;;;4998198;28;20177;-84
2022/10/16 05:42:23;;;;;;;5.20;2.50;;;14.10;99.90;;;;;;5001723;28;20195;-84
2022/10/16 05:44:50;;;;;;;6.00;2.50;;;14.10;99.90;;;;;;5004557;28;20222;-85
2022/10/16 05:47:16;;;;;;;6.00;3.10;;;14.10;99.90;;;;;;5009183;28;20182;-88
2022/10/16 05:49:42;;;;;;;6.50;2.90;;;14.20;99.90;;;;;;5007942;28;20198;-87
2022/10/16 05:52:08;;;;;;;4.23;2.80;;;14.20;99.90;;;;;;5013220;28;20164;-83
2022/10/16 05:54:34;;;;;;;7.13;2.60;;;14.10;99.90;;;;;;5012296;28;20182;-84
2022/10/16 05:57:01;;;;;;;5.93;2.73;;;14.10;99.90;;;;;;5011961;28;20185;-87
2022/10/16 05:59:28;;;;;;;6.10;3.30;;;14.10;99.90;;;;;;5007889;28;20181;-92
2022/10/16 06:01:54;;;;;;;5.30;2.50;;;14.10;99.90;;;;;;5005088;28;20189;-92
2022/10/16 06:04:20;;;;;;;5.67;3.30;;;14.20;99.90;;;;;;5000147;28;20182;-85
2022/10/16 06:06:46;;;;;;;5.40;3.00;;;14.20;99.90;;;;;;4997243;28;20210;-92
2022/10/16 06:09:14;;;;;;;3.70;2.80;;;14.10;99.90;;;;;;5001416;28;20624;-91
2022/10/16 06:11:42;;;;;;;7.13;2.73;;;14.20;99.90;;;;;;4998196;28;20228;-92
2022/10/16 06:14:10;;;;;;;5.60;2.60;;;14.30;99.90;;;;;;5001320;28;20204;-83
2022/10/16 06:16:37;;;;;;;6.77;2.93;;;14.30;99.90;;;;;;5002682;28;20286;-91
2022/10/16 06:19:06;;;;;;;6.37;2.43;;;14.20;99.90;;;;;;5000393;28;20208;-88
2022/10/16 06:21:37;;;;;;;6.13;2.60;;;14.20;99.90;;;;;;4999600;28;20182;-92
2022/10/16 06:24:03;;;;;;;5.17;3.00;;;14.30;99.90;;;;;;5000170;28;20281;-90
2022/10/16 06:26:38;;;;;;;3.97;2.33;;;14.20;99.90;;;;;;5001551;28;20281;-91
2022/10/16 06:29:05;;;;;;;5.10;2.93;;;14.30;99.90;;;;;;5019262;28;20154;-89
2022/10/16 06:31:33;;;;;;;6.73;2.87;;;14.30;99.90;;;;;;5016218;28;20195;-87
2022/10/16 06:34:01;;;;;;;5.03;2.87;;;14.40;99.90;;;;;;5019407;28;20170;-88
2022/10/16 06:37:17;;;;;;;5.37;2.73;;;14.40;99.90;;;;;;5017798;28;20170;-95
2022/10/16 06:40:26;;;;;;;6.30;2.67;;;14.40;99.90;;;;;;5011282;28;20182;-88
2022/10/16 06:42:55;;;;;;;5.37;2.60;;;14.50;99.90;;;;;;4997186;28;20177;-92
2022/10/16 06:45:23;;;;;;;4.30;2.60;;;14.60;99.90;;;;;;5001546;28;20203;-90
2022/10/16 06:47:50;;;;;;;5.47;2.70;;;14.60;99.90;;;;;;5005420;28;20165;-83
2022/10/16 06:50:16;;;;;;;3.90;2.40;;;14.80;99.90;;;;;;5016608;28;20178;-84
2022/10/16 06:52:42;;;;;;;4.70;2.67;;;14.80;99.90;;;;;;5014405;28;20236;-91
2022/10/16 06:55:07;;;;;;;4.67;2.13;;;14.90;99.90;;;;;;4998963;28;20175;-90
2022/10/16 06:57:34;;;;;;;5.63;2.70;;;14.80;99.90;;;;;;4997965;28;20596;-85
2022/10/16 07:00:03;;;;;;;3.87;2.40;;;14.80;99.90;;;;;;5000327;28;20217;-85
2022/10/16 07:03:02;;;;;;;6.70;2.77;;;14.80;99.90;;;;;;5127451;27;288112;-85
2022/10/16 07:05:27;;;;;;;3.87;2.47;;;14.90;99.90;;;;;;5139169;27;20227;-89
2022/10/16 07:10:31;;;;;;;4.80;2.53;;;15.10;99.90;;;;;;5110390;28;20223;-88
2022/10/16 07:13:16;;;;;;;3.97;2.37;;;15.10;97.90;;;;;;5090616;28;20232;-89
2022/10/16 07:19:06;;;;;;;4.93;2.37;;;15.10;98.20;;;;;;5101672;28;20202;-89
2022/10/16 07:21:35;;;;;;;6.20;2.80;;;15.00;99.90;;;;;;5065913;28;20207;-87
2022/10/16 07:24:02;;;;;;;5.53;2.47;;;15.20;98.40;;;;;;5105180;28;20164;-88
2022/10/16 07:26:36;;;;;;;4.23;2.60;;;15.20;98.70;;;;;;5101898;28;20172;-83
2022/10/16 07:29:11;;;;;;;4.67;2.33;;;15.20;98.60;;;;;;5108813;28;20565;-87
2022/10/16 07:31:40;;;;;;;5.00;2.70;;;15.20;99.30;;;;;;5106266;28;20647;-87
2022/10/16 07:34:05;;;;;;;6.03;2.87;;;15.10;99.90;;;;;;5081153;28;20164;-88
2022/10/16 07:36:36;;;;;;;4.30;2.80;;;15.20;99.90;;;;;;5087506;28;20163;-82
2022/10/16 07:39:02;;;;;;;4.77;2.77;;;15.20;99.90;;;;;;5079398;28;20554;-85
2022/10/16 07:41:32;;;;;;;5.57;2.83;;;15.20;99.90;;;;;;5079043;28;20211;-86
2022/10/16 07:44:02;;;;;;;6.43;2.63;;;15.30;99.90;;;;;;5080159;28;20168;-82
2022/10/16 07:46:28;;;;;;;4.53;2.57;;;15.40;98.60;;;;;;5084865;28;20171;-85
2022/10/16 07:48:54;;;;;;;5.07;2.67;;;15.50;97.10;;;;;;5082076;28;20172;-87
2022/10/16 07:51:30;;;;;;;3.90;2.13;;;15.60;96.00;;;;;;5079000;28;20247;-87
2022/10/16 07:53:57;;;;;;;5.07;2.40;;;15.50;95.80;;;;;;5099226;28;20182;-86
2022/10/16 07:56:24;;;;;;;5.50;2.50;;;15.60;94.90;;;;;;5079711;28;20205;-86
2022/10/16 07:58:50;;;;;;;5.90;2.63;;;15.60;94.30;;;;;;5098055;28;20219;-85
2022/10/16 08:01:17;;;;;;;5.07;2.77;;;15.70;93.30;;;;;;5083737;28;20187;-87
2022/10/16 08:03:50;;;;;;;5.10;2.63;;;15.70;92.00;;;;;;5080371;28;20171;-86
2022/10/16 08:06:20;;;;;;;4.77;2.47;;;15.70;92.50;;;;;;5095950;28;20160;-86
2022/10/16 08:08:47;;;;;;;3.57;2.30;;;15.70;91.50;;;;;;5079397;28;20550;-81
2022/10/16 08:11:14;;;;;;;3.83;2.00;;;15.70;91.60;;;;;;5079606;28;20180;-81
2022/10/16 08:13:44;;;;;;;5.10;2.57;;;15.80;90.50;;;;;;5084486;28;20153;-83
2022/10/16 08:16:11;;;;;;;3.47;2.30;;;15.80;90.00;;;;;;5066883;28;20279;-86
2022/10/16 08:18:40;;;;;;;5.67;2.67;;;15.80;90.10;;;;;;5084058;28;20169;-81
2022/10/16 08:21:16;;;;;;;4.23;2.27;;;15.90;87.40;;;;;;5073136;28;20200;-85
2022/10/16 08:23:45;;;;;;;4.17;2.10;;;15.90;86.60;;;;;;5078943;28;20164;-79
2022/10/16 08:26:12;;;;;;;5.37;2.83;;;16.00;84.60;;;;;;5089436;28;20201;-87
2022/10/16 08:28:40;;;;;;;5.63;2.23;;;16.10;81.50;;;;;;5056570;28;20161;-80
2022/10/16 08:31:11;;;;;;;5.73;2.40;;;16.10;78.60;;;;;;5065403;28;20209;-88
2022/10/16 08:33:38;;;;;;;4.33;2.10;;;16.30;76.50;;;;;;5050311;28;20251;-82
2022/10/16 08:36:05;;;;;;;4.63;2.43;;;16.00;72.80;;;;;;5065045;28;20172;-83
2022/10/16 08:38:31;;;;;;;5.83;2.17;;;16.20;69.50;;;;;;5063821;28;20211;-82
2022/10/16 08:41:37;;;;;;;3.63;2.03;;;16.20;67.10;;;;;;5080823;28;20223;-82
2022/10/16 08:44:28;;;;;;;5.47;2.10;;;16.30;64.80;;;;;;5063205;28;20179;-82
2022/10/16 08:47:03;;;;;;;5.93;2.47;;;16.40;61.10;;;;;;5062668;28;20188;-86
2022/10/16 08:49:31;;;;;;;4.87;2.50;;;16.60;55.50;;;;;;5076839;28;20595;-81
2022/10/16 08:52:30;;;;;;;7.70;2.50;;;16.70;52.70;;;;;;5070715;28;20173;-83
2022/10/16 08:55:03;;;;;;;5.63;2.07;;;16.70;49.50;;;;;;5069001;28;20647;-87
2022/10/16 08:57:35;;;;;;;7.23;2.60;;;16.70;44.20;;;;;;5049374;28;20223;-85
2022/10/16 09:00:14;;;;;;;5.37;2.20;;;17.10;39.30;;;;;;5060376;28;20266;-83
2022/10/16 09:03:07;;;;;;;5.37;2.20;;;17.10;31.20;;;;;;5067527;28;20210;-85
2022/10/16 09:05:50;;;;;;;5.93;1.83;;;17.10;27.90;;;;;;5066292;28;20196;-85
2022/10/16 09:08:54;;;;;;;4.97;1.87;;;17.20;21.30;;;;;;5064217;28;20186;-82
2022/10/16 09:11:44;;;;;;;5.17;2.13;;;17.10;23.50;;;;;;5065618;28;20178;-84
2022/10/16 09:14:14;;;;;;;7.63;2.40;;;17.20;20.80;;;;;;5067677;28;20192;-84
2022/10/16 09:17:11;;;;;;;8.77;2.50;;;17.30;19.10;;;;;;5079652;28;20162;-82
2022/10/16 09:19:56;;;;;;;5.57;1.97;;;17.40;15.50;;;;;;5091419;28;20218;-80
2022/10/16 09:22:28;;;;;;;4.53;1.90;;;17.40;11.10;;;;;;5092232;28;20203;-80
2022/10/16 09:25:12;;;;;;;5.57;1.80;;;17.50;8.60;;;;;;5065015;28;20233;-80
2022/10/16 09:27:44;;;;;;;5.57;1.73;;;17.50;5.70;;;;;;5066552;28;20263;-81
2022/10/16 09:30:17;;;;;;;3.40;1.60;;;17.60;1.00;;;;;;5065670;28;20174;-81
2022/10/16 09:32:53;;;;;;;4.80;1.90;;;17.60;2.40;;;;;;5064600;28;20183;-83
2022/10/16 09:35:43;;;;;;;6.37;1.97;;;17.70;1.00;;;;;;5061922;28;20652;-82
2022/10/16 09:38:31;;;;;;;7.87;1.90;;;17.90;1.00;;;;;;5064439;28;20236;-79
2022/10/16 09:41:03;;;;;;;4.07;1.50;;;18.00;1.00;;;;;;5042869;28;20224;-81
2022/10/16 09:43:35;;;;;;;5.67;1.77;;;18.00;1.00;;;;;;5050162;28;20161;-85
2022/10/16 09:46:41;;;;;;;6.77;1.90;;;18.20;1.00;;;;;;5068832;28;20162;-84
2022/10/16 09:49:18;;;;;;;4.30;1.30;;;18.40;1.00;;;;;;5023433;28;20189;-84
2022/10/16 09:51:49;;;;;;;4.40;1.70;;;18.40;1.00;;;;;;5065074;28;20172;-86
2022/10/16 09:54:20;;;;;;;5.67;1.70;;;18.40;1.00;;;;;;5070086;28;20259;-87
2022/10/16 09:56:51;;;;;;;4.80;1.83;;;18.30;1.00;;;;;;5082644;28;20171;-87
2022/10/16 09:59:30;;;;;;;4.77;1.90;;;18.30;1.00;;;;;;5067869;28;20192;-87
2022/10/16 10:02:03;;;;;;;5.80;1.47;;;18.40;1.00;;;;;;5053918;28;20579;-89
2022/10/16 10:04:48;;;;;;;5.83;1.90;;;18.40;1.00;;;;;;5080262;28;20165;-87
2022/10/16 10:07:39;;;;;;;5.87;1.87;;;18.50;1.00;;;;;;5070449;28;20187;-85
2022/10/16 10:10:23;;;;;;;5.87;1.57;;;18.80;1.00;;;;;;5064317;28;20283;-84
2022/10/16 10:12:50;;;;;;;4.57;1.57;;;19.00;1.00;;;;;;5086971;28;20184;-81
2022/10/16 10:15:23;;;;;;;7.33;1.67;;;19.00;1.00;;;;;;5071465;28;20149;-82
2022/10/16 10:17:58;;;;;;;5.27;1.40;;;18.80;1.00;;;;;;5081586;28;20129;-83
2022/10/16 10:20:32;;;;;;;6.43;1.50;;;18.80;1.00;;;;;;5079460;28;20255;-84
2022/10/16 10:22:58;;;;;;;4.70;1.70;;;18.80;1.00;;;;;;5096339;28;20155;-85
2022/10/16 10:26:02;;;;;;;4.43;1.87;;;18.70;1.00;;;;;;5070438;28;20185;-87
2022/10/16 10:29:06;;;;;;;7.43;1.93;;;18.80;1.00;;;;;;5084475;28;20222;-84
2022/10/16 10:31:52;;;;;;;3.77;1.70;;;19.00;1.00;;;;;;5070120;28;20164;-86
2022/10/16 10:34:36;;;;;;;7.13;1.83;;;19.00;1.00;;;;;;5082867;28;20162;-86
2022/10/16 10:37:16;;;;;;;5.13;1.60;;;19.00;1.00;;;;;;5067842;28;20260;-85
2022/10/16 10:40:18;;;;;;;3.83;1.60;;;19.10;1.00;;;;;;5068100;28;20166;-85
2022/10/16 10:43:20;;;;;;;5.07;1.93;;;19.20;1.00;;;;;;5076397;28;20236;-86
2022/10/16 10:46:11;;;;;;;4.53;1.80;;;19.10;1.00;;;;;;5083235;28;20176;-88
2022/10/16 10:49:22;;;;;;;5.47;1.70;;;19.00;1.00;;;;;;5084047;28;20212;-84
2022/10/16 10:52:31;;;;;;;4.40;2.13;;;18.90;1.00;;;;;;5093763;28;20160;-86
2022/10/16 10:55:38;;;;;;;6.30;2.20;;;18.80;1.00;;;;;;5094404;28;20144;-87
2022/10/16 10:58:18;;;;;;;4.47;1.67;;;19.00;1.00;;;;;;5059917;28;20172;-86
2022/10/16 11:01:02;;;;;;;4.07;1.20;;;19.10;1.00;;;;;;5063968;28;20214;-85
2022/10/16 11:03:47;;;;;;;5.23;1.60;;;19.20;1.00;;;;;;5061997;28;20167;-85
2022/10/16 11:06:31;;;;;;;5.37;1.60;;;19.50;1.00;;;;;;5056762;28;20231;-81
2022/10/16 11:09:03;;;;;;;7.87;1.53;;;19.70;1.00;;;;;;5038801;28;20181;-82
2022/10/16 11:11:41;;;;;;;4.10;1.50;;;20.10;1.00;;;;;;5047053;28;20407;-85
2022/10/16 11:14:27;;;;;;;4.53;1.60;;;20.20;1.00;;;;;;5067276;28;20284;-82
2022/10/16 11:17:48;;;;;;;4.50;1.63;;;20.30;1.00;;;;;;5030867;28;20238;-83
2022/10/16 11:20:34;;;;;;;4.53;1.50;;;20.10;1.00;;;;;;5076319;28;20161;-81
2022/10/16 11:23:32;;;;;;;4.60;1.23;;;20.20;1.00;;;;;;5057348;28;20233;-82
2022/10/16 11:26:14;;;;;;;5.93;1.27;;;20.10;1.00;;;;;;5059535;28;20175;-86
2022/10/16 11:29:15;;;;;;;5.53;1.40;;;20.00;1.00;;;;;;5076149;28;20173;-85
2022/10/16 11:31:58;;;;;;;5.67;1.37;;;19.90;1.00;;;;;;5069998;28;20195;-88
2022/10/16 11:34:44;;;;;;;3.63;1.30;;;20.00;1.00;;;;;;5064399;28;20216;-85
2022/10/16 11:37:33;;;;;;;3.87;1.20;;;20.00;1.00;;;;;;5087627;28;20162;-86
2022/10/16 11:40:34;;;;;;;4.60;1.20;;;20.00;1.00;;;;;;5045361;28;20195;-86
2022/10/16 11:43:28;;;;;;;3.67;1.47;;;20.00;1.00;;;;;;5026388;28;20254;-84
2022/10/16 11:45:57;;;;;;;6.33;1.60;;;20.00;1.00;;;;;;5063707;28;20263;-85
2022/10/16 11:48:49;;;;;;;3.07;1.50;;;20.00;1.00;;;;;;5082203;28;20155;-84
2022/10/16 11:51:21;;;;;;;4.37;1.57;;;20.00;1.00;;;;;;5074555;28;20210;-83
2022/10/16 11:53:59;;;;;;;3.73;1.50;;;20.00;1.00;;;;;;5096761;28;20235;-82
2022/10/16 11:56:38;;;;;;;3.93;1.50;;;20.10;1.00;;;;;;5099472;28;20171;-86
2022/10/16 11:59:27;;;;;;;5.03;1.80;;;19.90;1.00;;;;;;5092818;28;20248;-90
2022/10/16 12:02:30;;;;;;;6.93;1.40;;;19.90;1.00;;;;;;5071329;28;20299;-88
2022/10/16 12:05:45;;;;;;;3.63;1.50;;;20.20;1.00;;;;;;5095124;28;20199;-84
2022/10/16 12:08:21;;;;;;;3.60;1.10;;;20.30;1.00;;;;;;5094745;28;20175;-79
2022/10/16 12:11:12;;;;;;;3.33;1.07;;;20.20;1.00;;;;;;5077209;28;20183;-82
2022/10/16 12:13:48;;;;;;;3.00;1.40;;;20.20;1.00;;;;;;5078664;28;20543;-83
2022/10/16 12:16:13;;;;;;;2.90;1.10;;;20.20;1.00;;;;;;5087516;28;20167;-83
2022/10/16 12:18:43;;;;;;;3.67;1.30;;;20.20;1.00;;;;;;5090542;28;20168;-85
2022/10/16 12:21:18;;;;;;;2.97;1.20;;;20.20;1.00;;;;;;5044739;28;20212;-84
2022/10/16 12:24:06;;;;;;;4.07;1.10;;;20.30;1.00;;;;;;5085613;28;20173;-82
2022/10/16 12:26:53;;;;;;;2.40;1.00;;;20.20;1.00;;;;;;5097740;28;20208;-88
2022/10/16 12:30:22;;;;;;;3.90;1.10;;;20.30;1.00;;;;;;5078416;28;20202;-82
2022/10/16 12:33:03;;;;;;;3.00;0.90;;;20.30;1.00;;;;;;5058420;28;20186;-83
2022/10/16 12:35:42;;;;;;;3.10;1.00;;;20.20;1.00;;;;;;5068257;28;20663;-88
2022/10/16 12:38:17;;;;;;;2.50;1.10;;;20.30;1.00;;;;;;5051111;28;20255;-84
2022/10/16 12:41:30;;;;;;;4.33;1.10;;;20.40;1.00;;;;;;5094118;28;20229;-84
2022/10/16 12:43:58;;;;;;;4.50;1.20;;;20.50;1.00;;;;;;5091380;28;20627;-82
2022/10/16 12:46:38;;;;;;;2.63;1.07;;;20.30;1.00;;;;;;5078375;28;20190;-85
2022/10/16 12:49:36;;;;;;;4.17;1.20;;;20.20;1.00;;;;;;5076919;28;20194;-84
2022/10/16 12:52:03;;;;;;;3.70;1.30;;;20.30;1.00;;;;;;5087356;28;20184;-85
2022/10/16 12:54:37;;;;;;;3.63;1.40;;;20.40;1.00;;;;;;5096892;28;20209;-84
2022/10/16 12:57:44;;;;;;;2.93;1.47;;;20.50;1.00;;;;;;5056109;28;20171;-84
2022/10/16 13:04:03;;;;;;;4.37;1.13;;;20.60;1.00;;;;;;5091124;28;20189;-84
2022/10/16 13:06:50;;;;;;;1.67;0.90;;;20.50;1.00;;;;;;5093863;28;20164;-83
2022/10/16 13:09:34;;;;;;;7.60;1.87;;;20.50;1.00;;;;;;5089465;28;20576;-83
2022/10/16 13:12:45;;;;;;;4.87;1.73;;;20.60;1.00;;;;;;5094863;28;20709;-81
2022/10/16 13:15:46;;;;;;;5.80;2.90;;;20.70;1.00;;;;;;5067885;28;20185;-88
2022/10/16 13:18:53;;;;;;;4.03;1.37;;;20.90;1.00;;;;;;5014243;28;20192;-80
2022/10/16 13:21:53;;;;;;;6.00;1.53;;;20.80;1.00;;;;;;5065662;28;20216;-81
2022/10/16 13:24:41;;;;;;;5.10;2.03;;;20.60;1.00;;;;;;5052395;28;20188;-82
2022/10/16 13:27:20;;;;;;;4.37;1.80;;;20.80;1.00;;;;;;5067023;28;20189;-81
2022/10/16 13:30:36;;;;;;;2.57;1.27;;;20.90;1.00;;;;;;5077681;28;20184;-88
2022/10/16 13:33:59;;;;;;;4.60;1.80;;;20.90;1.00;;;;;;5095313;28;20190;-85
2022/10/16 13:36:47;;;;;;;3.23;1.57;;;21.00;1.00;;;;;;5076935;28;20182;-90
2022/10/16 13:39:23;;;;;;;4.70;1.83;;;21.00;1.00;;;;;;5094502;28;20205;-87
2022/10/16 13:42:15;;;;;;;4.67;1.60;;;20.90;1.00;;;;;;5096528;28;20229;-86
2022/10/16 13:45:20;;;;;;;8.00;2.17;;;20.60;1.00;;;;;;5071494;28;20181;-87